createdAt,value
2017-08-16T00:00:33.930Z,23.79
2017-08-16T00:01:14.380Z,23.67
2017-08-16T00:01:54.834Z,23.69
2017-08-16T00:02:35.308Z,23.71
2017-08-16T00:03:15.751Z,23.7
2017-08-16T00:03:56.204Z,23.66
2017-08-16T00:04:36.659Z,23.71
2017-08-16T00:05:17.112Z,23.64
2017-08-16T00:05:57.562Z,23.64
2017-08-16T00:06:38.008Z,23.69
2017-08-16T00:07:18.451Z,23.74
2017-08-16T00:07:58.901Z,23.74
2017-08-16T00:08:39.353Z,23.7
2017-08-16T00:09:19.810Z,23.73
2017-08-16T00:10:00.273Z,23.76
2017-08-16T00:10:40.721Z,23.67
2017-08-16T00:11:21.171Z,23.73
2017-08-16T00:12:01.620Z,23.76
2017-08-16T00:12:42.090Z,23.73
2017-08-16T00:13:22.542Z,23.69
2017-08-16T00:14:03.000Z,23.76
2017-08-16T00:14:43.450Z,23.77
2017-08-16T00:15:23.904Z,23.64
2017-08-16T00:16:04.374Z,23.67
2017-08-16T00:16:44.922Z,23.64
2017-08-16T00:17:25.286Z,23.74
2017-08-16T00:18:05.741Z,23.64
2017-08-16T00:18:46.197Z,23.76
2017-08-16T00:19:26.640Z,23.71
2017-08-16T00:20:07.102Z,23.69
2017-08-16T00:20:47.547Z,23.69
2017-08-16T00:21:28.007Z,23.67
2017-08-16T00:22:08.470Z,23.69
2017-08-16T00:22:48.927Z,23.69
2017-08-16T00:23:29.382Z,23.62
2017-08-16T00:24:09.846Z,23.64
2017-08-16T00:24:50.283Z,23.69
2017-08-16T00:25:30.739Z,23.67
2017-08-16T00:26:11.191Z,23.63
2017-08-16T00:26:51.678Z,23.67
2017-08-16T00:27:32.137Z,23.64
2017-08-16T00:28:12.586Z,23.67
2017-08-16T00:28:53.051Z,23.66
2017-08-16T00:29:33.501Z,23.63
2017-08-16T00:30:13.957Z,23.62
2017-08-16T00:30:54.414Z,23.66
2017-08-16T00:31:34.873Z,23.63
2017-08-16T00:32:15.329Z,23.59
2017-08-16T00:32:55.780Z,23.56
2017-08-16T00:33:36.233Z,23.63
2017-08-16T00:34:16.689Z,23.52
2017-08-16T00:34:57.146Z,23.58
2017-08-16T00:35:37.586Z,23.55
2017-08-16T00:36:18.049Z,23.55
2017-08-16T00:36:58.505Z,23.51
2017-08-16T00:37:38.979Z,23.56
2017-08-16T00:38:19.435Z,23.54
2017-08-16T00:39:00.839Z,23.56
2017-08-16T00:39:41.299Z,23.52
2017-08-16T00:40:21.756Z,23.54
2017-08-16T00:41:02.232Z,23.54
2017-08-16T00:41:42.685Z,23.52
2017-08-16T00:42:23.141Z,23.52
2017-08-16T00:43:03.580Z,23.48
2017-08-16T00:43:44.029Z,23.44
2017-08-16T00:44:24.493Z,23.54
2017-08-16T00:45:04.922Z,23.55
2017-08-16T00:45:45.380Z,23.49
2017-08-16T00:46:25.836Z,23.48
2017-08-16T00:47:06.295Z,23.49
2017-08-16T00:47:46.751Z,23.51
2017-08-16T00:48:27.207Z,23.51
2017-08-16T00:49:07.665Z,23.47
2017-08-16T00:49:48.127Z,23.47
2017-08-16T00:50:28.577Z,23.45
2017-08-16T00:51:09.045Z,23.37
2017-08-16T00:51:49.488Z,23.47
2017-08-16T00:52:29.937Z,23.33
2017-08-16T00:53:10.393Z,23.33
2017-08-16T00:53:50.841Z,23.34
2017-08-16T00:54:31.308Z,23.29
2017-08-16T00:55:11.757Z,23.26
2017-08-16T00:55:52.208Z,23.29
2017-08-16T00:56:32.669Z,23.29
2017-08-16T00:57:13.118Z,23.42
2017-08-16T00:57:53.578Z,23.34
2017-08-16T00:58:34.030Z,23.26
2017-08-16T00:59:14.483Z,23.2
2017-08-16T00:59:54.934Z,23.2
2017-08-16T01:00:35.399Z,23.18
2017-08-16T01:01:15.858Z,23.23
2017-08-16T01:01:56.322Z,23.26
2017-08-16T01:02:36.774Z,23.23
2017-08-16T01:03:17.243Z,23.28
2017-08-16T01:03:57.687Z,23.25
2017-08-16T01:04:38.133Z,23.29
2017-08-16T01:05:18.587Z,23.37
2017-08-16T01:05:59.041Z,23.29
2017-08-16T01:06:39.483Z,23.34
2017-08-16T01:07:19.935Z,23.34
2017-08-16T01:08:00.401Z,23.37
2017-08-16T01:08:40.857Z,23.36
2017-08-16T01:09:21.310Z,23.34
2017-08-16T01:10:01.771Z,23.28
2017-08-16T01:10:42.237Z,23.34
2017-08-16T01:11:22.690Z,23.32
2017-08-16T01:12:03.144Z,23.34
2017-08-16T01:12:43.612Z,23.34
2017-08-16T01:13:24.067Z,23.34
2017-08-16T01:14:04.517Z,23.32
2017-08-16T01:14:45.049Z,23.44
2017-08-16T01:15:25.504Z,23.33
2017-08-16T01:16:05.959Z,23.39
2017-08-16T01:16:46.409Z,23.34
2017-08-16T01:17:26.886Z,23.25
2017-08-16T01:18:07.329Z,23.32
2017-08-16T01:18:47.791Z,23.33
2017-08-16T01:19:28.248Z,23.36
2017-08-16T01:20:08.704Z,23.32
2017-08-16T01:20:49.173Z,23.25
2017-08-16T01:21:29.624Z,23.28
2017-08-16T01:22:10.087Z,23.28
2017-08-16T01:22:50.546Z,23.33
2017-08-16T01:23:31.003Z,23.34
2017-08-16T01:24:11.459Z,23.32
2017-08-16T01:24:51.906Z,23.25
2017-08-16T01:25:32.360Z,23.26
2017-08-16T01:26:12.827Z,23.34
2017-08-16T01:26:53.281Z,23.32
2017-08-16T01:27:33.737Z,23.26
2017-08-16T01:28:14.193Z,23.32
2017-08-16T01:28:54.638Z,23.32
2017-08-16T01:29:35.097Z,23.28
2017-08-16T01:30:15.548Z,23.34
2017-08-16T01:30:56.002Z,23.34
2017-08-16T01:31:36.476Z,23.39
2017-08-16T01:32:16.943Z,23.42
2017-08-16T01:32:57.397Z,23.37
2017-08-16T01:33:37.859Z,23.33
2017-08-16T01:34:18.314Z,23.34
2017-08-16T01:34:58.766Z,23.42
2017-08-16T01:35:39.226Z,23.47
2017-08-16T01:36:19.686Z,23.34
2017-08-16T01:37:00.158Z,23.37
2017-08-16T01:37:40.613Z,23.28
2017-08-16T01:38:21.068Z,23.34
2017-08-16T01:39:01.527Z,23.26
2017-08-16T01:39:41.979Z,23.2
2017-08-16T01:40:22.432Z,23.08
2017-08-16T01:41:02.879Z,23.1
2017-08-16T01:41:43.340Z,23.16
2017-08-16T01:42:23.799Z,23.17
2017-08-16T01:43:04.250Z,23.13
2017-08-16T01:43:44.708Z,23.14
2017-08-16T01:44:25.165Z,23.14
2017-08-16T01:45:05.623Z,23.14
2017-08-16T01:45:46.082Z,23.18
2017-08-16T01:46:26.533Z,23.21
2017-08-16T01:47:06.986Z,23.14
2017-08-16T01:47:47.444Z,23.13
2017-08-16T01:48:27.897Z,23.14
2017-08-16T01:49:08.339Z,23.2
2017-08-16T01:49:48.782Z,23.29
2017-08-16T01:50:29.251Z,23.23
2017-08-16T01:51:09.695Z,23.26
2017-08-16T01:51:50.154Z,23.2
2017-08-16T01:52:30.606Z,23.33
2017-08-16T01:53:11.062Z,23.23
2017-08-16T01:53:51.517Z,23.2
2017-08-16T01:54:31.970Z,23.1
2017-08-16T01:55:12.424Z,23.26
2017-08-16T01:55:52.876Z,23.21
2017-08-16T01:56:33.335Z,23.28
2017-08-16T01:57:13.789Z,23.23
2017-08-16T01:57:54.252Z,23.34
2017-08-16T01:58:34.701Z,23.25
2017-08-16T01:59:15.168Z,23.29
2017-08-16T01:59:55.621Z,23.18
2017-08-16T02:00:36.072Z,23.26
2017-08-16T02:01:16.525Z,23.26
2017-08-16T02:01:56.977Z,23.2
2017-08-16T02:02:37.425Z,23.26
2017-08-16T02:03:17.890Z,23.26
2017-08-16T02:03:58.349Z,23.26
2017-08-16T02:04:38.806Z,23.23
2017-08-16T02:05:19.268Z,23.17
2017-08-16T02:05:59.728Z,23.29
2017-08-16T02:06:40.183Z,23.21
2017-08-16T02:07:20.639Z,23.2
2017-08-16T02:08:01.079Z,23.26
2017-08-16T02:08:41.533Z,23.25
2017-08-16T02:09:21.993Z,23.26
2017-08-16T02:10:02.439Z,23.21
2017-08-16T02:10:42.896Z,23.32
2017-08-16T02:11:23.354Z,23.32
2017-08-16T02:12:03.802Z,23.25
2017-08-16T02:12:44.258Z,23.32
2017-08-16T02:13:24.720Z,23.28
2017-08-16T02:14:05.174Z,23.33
2017-08-16T02:14:45.637Z,23.32
2017-08-16T02:15:26.122Z,23.28
2017-08-16T02:16:06.552Z,23.25
2017-08-16T02:16:47.009Z,23.2
2017-08-16T02:17:27.457Z,23.18
2017-08-16T02:18:07.918Z,23.18
2017-08-16T02:18:48.373Z,23.2
2017-08-16T02:19:28.826Z,23.25
2017-08-16T02:20:09.281Z,23.21
2017-08-16T02:20:49.733Z,23.11
2017-08-16T02:21:30.190Z,23.1
2017-08-16T02:22:10.653Z,23.16
2017-08-16T02:22:51.106Z,23.13
2017-08-16T02:23:31.568Z,23.18
2017-08-16T02:24:12.032Z,23.13
2017-08-16T02:24:52.482Z,23.18
2017-08-16T02:25:32.942Z,23.1
2017-08-16T02:26:13.398Z,23.06
2017-08-16T02:26:53.864Z,23.02
2017-08-16T02:27:34.324Z,23.06
2017-08-16T02:28:14.789Z,23.01
2017-08-16T02:28:55.252Z,23.02
2017-08-16T02:29:35.717Z,22.98
2017-08-16T02:30:16.170Z,22.95
2017-08-16T02:30:56.625Z,22.99
2017-08-16T02:31:37.076Z,22.95
2017-08-16T02:32:17.526Z,22.99
2017-08-16T02:32:57.975Z,22.92
2017-08-16T02:33:38.439Z,22.98
2017-08-16T02:34:18.895Z,22.91
2017-08-16T02:34:59.345Z,22.96
2017-08-16T02:35:39.811Z,22.92
2017-08-16T02:36:20.280Z,22.89
2017-08-16T02:37:00.739Z,22.86
2017-08-16T02:37:41.201Z,22.86
2017-08-16T02:38:21.656Z,22.84
2017-08-16T02:39:02.106Z,22.84
2017-08-16T02:39:42.573Z,22.84
2017-08-16T02:40:23.018Z,22.8
2017-08-16T02:41:03.468Z,22.84
2017-08-16T02:41:43.927Z,22.84
2017-08-16T02:42:24.382Z,22.84
2017-08-16T02:43:04.828Z,22.77
2017-08-16T02:43:45.279Z,22.84
2017-08-16T02:44:25.743Z,22.84
2017-08-16T02:45:06.201Z,22.83
2017-08-16T02:45:46.666Z,22.83
2017-08-16T02:46:27.133Z,22.8
2017-08-16T02:47:07.612Z,22.8
2017-08-16T02:47:48.083Z,22.81
2017-08-16T02:48:28.544Z,22.78
2017-08-16T02:49:09.013Z,22.8
2017-08-16T02:49:49.449Z,22.76
2017-08-16T02:50:29.903Z,22.7
2017-08-16T02:51:10.370Z,22.77
2017-08-16T02:51:50.824Z,22.77
2017-08-16T02:52:31.278Z,22.65
2017-08-16T02:53:11.720Z,22.78
2017-08-16T02:53:52.180Z,22.63
2017-08-16T02:54:32.632Z,22.77
2017-08-16T02:55:13.090Z,22.7
2017-08-16T02:55:53.545Z,22.77
2017-08-16T02:56:34.000Z,22.83
2017-08-16T02:57:14.454Z,22.77
2017-08-16T02:57:54.899Z,22.88
2017-08-16T02:58:35.359Z,22.84
2017-08-16T02:59:15.824Z,22.88
2017-08-16T02:59:56.279Z,22.89
2017-08-16T03:00:36.735Z,22.92
2017-08-16T03:01:17.196Z,22.92
2017-08-16T03:01:57.656Z,22.96
2017-08-16T03:02:38.114Z,22.96
2017-08-16T03:03:18.571Z,23.02
2017-08-16T03:03:59.034Z,22.92
2017-08-16T03:04:39.494Z,22.96
2017-08-16T03:05:19.952Z,23.02
2017-08-16T03:06:00.410Z,22.98
2017-08-16T03:06:40.863Z,22.99
2017-08-16T03:07:21.331Z,22.96
2017-08-16T03:08:01.780Z,23.04
2017-08-16T03:08:42.230Z,23.08
2017-08-16T03:09:22.689Z,23.01
2017-08-16T03:10:03.143Z,22.99
2017-08-16T03:10:43.602Z,23.1
2017-08-16T03:11:24.068Z,23.13
2017-08-16T03:12:04.526Z,23.11
2017-08-16T03:12:45.096Z,23.18
2017-08-16T03:13:25.499Z,23.1
2017-08-16T03:14:05.959Z,23.1
2017-08-16T03:14:46.417Z,23.17
2017-08-16T03:15:26.872Z,23.2
2017-08-16T03:16:07.324Z,23.08
2017-08-16T03:16:47.785Z,23.2
2017-08-16T03:17:28.239Z,23.17
2017-08-16T03:18:08.704Z,23.14
2017-08-16T03:18:49.159Z,23.07
2017-08-16T03:19:29.617Z,23.18
2017-08-16T03:20:10.078Z,23.18
2017-08-16T03:20:50.537Z,23.11
2017-08-16T03:21:30.992Z,23.14
2017-08-16T03:22:11.453Z,23.11
2017-08-16T03:22:51.903Z,23.13
2017-08-16T03:23:32.354Z,23.1
2017-08-16T03:24:12.811Z,23.08
2017-08-16T03:24:53.271Z,23.07
2017-08-16T03:25:33.729Z,23.08
2017-08-16T03:26:14.189Z,23.07
2017-08-16T03:26:54.658Z,23.02
2017-08-16T03:27:35.105Z,23.04
2017-08-16T03:28:15.568Z,23.04
2017-08-16T03:28:56.025Z,23.06
2017-08-16T03:29:36.484Z,22.99
2017-08-16T03:30:16.941Z,23.01
2017-08-16T03:30:57.391Z,23.01
2017-08-16T03:31:37.852Z,22.99
2017-08-16T03:32:18.315Z,23.02
2017-08-16T03:32:58.765Z,23.06
2017-08-16T03:33:39.228Z,23.06
2017-08-16T03:34:19.684Z,22.95
2017-08-16T03:35:00.183Z,23.01
2017-08-16T03:35:40.677Z,23.02
2017-08-16T03:36:21.104Z,23.04
2017-08-16T03:37:01.576Z,22.98
2017-08-16T03:37:42.028Z,22.99
2017-08-16T03:38:22.483Z,23.02
2017-08-16T03:39:02.941Z,23.1
2017-08-16T03:39:43.397Z,23.17
2017-08-16T03:40:23.847Z,23.17
2017-08-16T03:41:04.306Z,23.17
2017-08-16T03:41:44.766Z,23.23
2017-08-16T03:42:25.218Z,23.32
2017-08-16T03:43:05.679Z,23.32
2017-08-16T03:43:46.137Z,23.32
2017-08-16T03:44:26.577Z,23.4
2017-08-16T03:45:07.036Z,23.36
2017-08-16T03:45:47.503Z,23.34
2017-08-16T03:46:27.933Z,23.32
2017-08-16T03:47:08.391Z,23.32
2017-08-16T03:47:48.857Z,23.32
2017-08-16T03:48:29.301Z,23.36
2017-08-16T03:49:09.759Z,23.4
2017-08-16T03:49:50.206Z,23.45
2017-08-16T03:50:30.659Z,23.49
2017-08-16T03:51:11.116Z,23.56
2017-08-16T03:51:51.576Z,23.62
2017-08-16T03:52:32.035Z,23.66
2017-08-16T03:53:12.490Z,23.66
2017-08-16T03:53:52.947Z,23.63
2017-08-16T03:54:33.406Z,23.7
2017-08-16T03:55:13.855Z,23.64
2017-08-16T03:55:54.313Z,23.69
2017-08-16T03:56:34.774Z,23.73
2017-08-16T03:57:15.208Z,23.7
2017-08-16T03:57:55.704Z,23.71
2017-08-16T03:58:36.158Z,23.74
2017-08-16T03:59:16.617Z,23.81
2017-08-16T03:59:57.079Z,23.82
2017-08-16T04:00:37.550Z,23.77
2017-08-16T04:01:18.016Z,23.81
2017-08-16T04:01:58.458Z,23.86
2017-08-16T04:02:38.902Z,23.74
2017-08-16T04:03:19.358Z,23.76
2017-08-16T04:03:59.808Z,23.79
2017-08-16T04:04:40.262Z,23.76
2017-08-16T04:05:20.712Z,23.81
2017-08-16T04:06:01.165Z,23.86
2017-08-16T04:06:41.614Z,23.91
2017-08-16T04:07:22.052Z,23.92
2017-08-16T04:08:02.526Z,23.95
2017-08-16T04:08:42.971Z,23.91
2017-08-16T04:09:23.401Z,23.91
2017-08-16T04:10:03.859Z,23.91
2017-08-16T04:10:44.337Z,23.99
2017-08-16T04:11:24.797Z,23.92
2017-08-16T04:12:05.314Z,24
2017-08-16T04:12:45.774Z,23.99
2017-08-16T04:13:26.232Z,23.96
2017-08-16T04:14:06.688Z,23.91
2017-08-16T04:14:47.139Z,23.99
2017-08-16T04:15:27.599Z,23.92
2017-08-16T04:16:08.063Z,24.01
2017-08-16T04:16:48.506Z,24.03
2017-08-16T04:17:28.971Z,24.07
2017-08-16T04:18:09.424Z,23.99
2017-08-16T04:18:49.880Z,23.95
2017-08-16T04:19:30.329Z,24.01
2017-08-16T04:20:10.783Z,24.07
2017-08-16T04:20:51.230Z,24.04
2017-08-16T04:21:31.681Z,24.09
2017-08-16T04:22:12.137Z,24.07
2017-08-16T04:22:52.598Z,24.06
2017-08-16T04:23:33.049Z,24.09
2017-08-16T04:24:13.508Z,24.1
2017-08-16T04:24:53.965Z,24.04
2017-08-16T04:25:34.421Z,24.07
2017-08-16T04:26:14.878Z,24.07
2017-08-16T04:26:55.340Z,24.03
2017-08-16T04:27:35.796Z,24.11
2017-08-16T04:28:16.249Z,24.03
2017-08-16T04:28:56.700Z,24.04
2017-08-16T04:29:37.158Z,24.1
2017-08-16T04:30:17.616Z,24.06
2017-08-16T04:30:58.070Z,24.06
2017-08-16T04:31:38.534Z,24.07
2017-08-16T04:32:18.985Z,24.04
2017-08-16T04:32:59.447Z,24.1
2017-08-16T04:33:39.897Z,24.07
2017-08-16T04:34:20.351Z,24.07
2017-08-16T04:35:00.806Z,24.1
2017-08-16T04:35:41.263Z,24.09
2017-08-16T04:36:21.719Z,24.06
2017-08-16T04:37:02.187Z,24.07
2017-08-16T04:37:42.636Z,24.01
2017-08-16T04:38:23.093Z,24.03
2017-08-16T04:39:03.546Z,24.06
2017-08-16T04:39:44.002Z,24.07
2017-08-16T04:40:24.450Z,24.11
2017-08-16T04:41:04.909Z,24.06
2017-08-16T04:41:45.368Z,24.06
2017-08-16T04:42:25.812Z,24.03
2017-08-16T04:43:06.255Z,24.04
2017-08-16T04:43:46.703Z,24.06
2017-08-16T04:44:27.152Z,24.11
2017-08-16T04:45:07.611Z,24.03
2017-08-16T04:45:48.069Z,24.06
2017-08-16T04:46:28.520Z,24.06
2017-08-16T04:47:08.973Z,24.07
2017-08-16T04:47:49.422Z,23.99
2017-08-16T04:48:29.886Z,24.07
2017-08-16T04:49:10.332Z,24.01
2017-08-16T04:49:50.789Z,23.92
2017-08-16T04:50:31.244Z,23.99
2017-08-16T04:51:11.696Z,23.95
2017-08-16T04:51:52.153Z,24.04
2017-08-16T04:52:32.608Z,23.99
2017-08-16T04:53:13.065Z,23.96
2017-08-16T04:53:53.520Z,24.09
2017-08-16T04:54:33.996Z,23.95
2017-08-16T04:55:14.448Z,24.01
2017-08-16T04:55:54.903Z,23.95
2017-08-16T04:56:35.369Z,24.06
2017-08-16T04:57:15.867Z,23.99
2017-08-16T04:57:56.327Z,24
2017-08-16T04:58:36.780Z,23.95
2017-08-16T04:59:17.236Z,24.09
2017-08-16T04:59:57.702Z,24.06
2017-08-16T05:00:38.150Z,24.09
2017-08-16T05:01:18.613Z,24
2017-08-16T05:01:59.073Z,23.95
2017-08-16T05:02:39.530Z,23.99
2017-08-16T05:03:19.989Z,23.95
2017-08-16T05:04:00.446Z,24.1
2017-08-16T05:04:40.912Z,23.96
2017-08-16T05:05:21.362Z,24.01
2017-08-16T05:06:01.799Z,23.94
2017-08-16T05:06:42.236Z,23.99
2017-08-16T05:07:22.694Z,23.92
2017-08-16T05:08:03.159Z,23.92
2017-08-16T05:08:43.611Z,23.99
2017-08-16T05:09:24.073Z,24
2017-08-16T05:10:04.524Z,23.95
2017-08-16T05:10:44.996Z,24.01
2017-08-16T05:11:25.440Z,23.95
2017-08-16T05:12:05.892Z,23.92
2017-08-16T05:12:46.353Z,23.95
2017-08-16T05:13:26.782Z,23.99
2017-08-16T05:14:07.233Z,23.96
2017-08-16T05:14:47.663Z,23.96
2017-08-16T05:15:28.118Z,23.89
2017-08-16T05:16:08.558Z,24
2017-08-16T05:16:49.011Z,23.92
2017-08-16T05:17:29.470Z,23.92
2017-08-16T05:18:09.928Z,23.92
2017-08-16T05:18:50.392Z,23.96
2017-08-16T05:19:30.848Z,24.04
2017-08-16T05:20:11.290Z,24.01
2017-08-16T05:20:51.752Z,24.06
2017-08-16T05:21:32.208Z,23.99
2017-08-16T05:22:12.661Z,23.99
2017-08-16T05:22:53.111Z,23.99
2017-08-16T05:23:33.559Z,23.96
2017-08-16T05:24:14.006Z,24.07
2017-08-16T05:24:54.468Z,24.03
2017-08-16T05:25:34.927Z,24.07
2017-08-16T05:26:15.388Z,24.03
2017-08-16T05:26:55.855Z,24.04
2017-08-16T05:27:36.307Z,24.07
2017-08-16T05:28:16.771Z,24.07
2017-08-16T05:28:57.218Z,24.01
2017-08-16T05:29:37.672Z,24.07
2017-08-16T05:30:18.135Z,24.03
2017-08-16T05:30:58.587Z,24.06
2017-08-16T05:31:39.065Z,24.09
2017-08-16T05:32:19.507Z,24.07
2017-08-16T05:32:59.966Z,24.04
2017-08-16T05:33:40.419Z,24.14
2017-08-16T05:34:20.891Z,24.04
2017-08-16T05:35:01.374Z,24.09
2017-08-16T05:35:41.964Z,24.07
2017-08-16T05:36:22.407Z,24.03
2017-08-16T05:37:02.864Z,24.06
2017-08-16T05:37:43.324Z,24.07
2017-08-16T05:39:30.855Z,24.1
2017-08-16T05:40:11.303Z,24.06
2017-08-16T05:40:51.763Z,24.06
2017-08-16T05:41:32.204Z,24.1
2017-08-16T05:42:12.674Z,24.06
2017-08-16T05:42:53.115Z,24.09
2017-08-16T05:43:33.569Z,24.1
2017-08-16T05:44:14.022Z,24.1
2017-08-16T05:44:54.483Z,24.16
2017-08-16T05:45:34.933Z,24.19
2017-08-16T05:46:15.392Z,24.09
2017-08-16T05:46:55.847Z,24.19
2017-08-16T05:47:36.314Z,24.16
2017-08-16T05:48:16.754Z,24.1
2017-08-16T05:48:57.320Z,24.19
2017-08-16T05:49:37.798Z,24.13
2017-08-16T05:50:18.256Z,24.14
2017-08-16T05:50:58.710Z,24.13
2017-08-16T05:51:39.182Z,24.18
2017-08-16T05:52:19.623Z,24.18
2017-08-16T05:53:00.095Z,24.22
2017-08-16T05:53:40.543Z,24.21
2017-08-16T05:54:21.005Z,24.19
2017-08-16T05:55:01.456Z,24.22
2017-08-16T05:55:41.926Z,24.25
2017-08-16T05:56:22.365Z,24.19
2017-08-16T05:57:02.814Z,24.19
2017-08-16T05:57:43.265Z,24.18
2017-08-16T05:58:23.726Z,24.18
2017-08-16T05:59:04.168Z,24.21
2017-08-16T06:00:56.878Z,24.19
2017-08-16T06:01:37.332Z,24.24
2017-08-16T06:02:17.787Z,24.22
2017-08-16T06:02:58.229Z,24.22
2017-08-16T06:03:38.682Z,24.18
2017-08-16T06:04:19.143Z,24.24
2017-08-16T06:04:59.601Z,24.31
2017-08-16T06:05:40.047Z,24.26
2017-08-16T06:06:20.493Z,24.32
2017-08-16T06:07:00.951Z,24.31
2017-08-16T06:07:41.407Z,24.36
2017-08-16T06:08:21.844Z,24.38
2017-08-16T06:09:02.313Z,24.37
2017-08-16T06:09:42.762Z,24.36
2017-08-16T06:10:23.205Z,24.37
2017-08-16T06:11:03.664Z,24.41
2017-08-16T06:11:44.114Z,24.46
2017-08-16T06:12:24.565Z,24.43
2017-08-16T06:13:05.019Z,24.48
2017-08-16T06:13:45.488Z,24.43
2017-08-16T06:14:25.936Z,24.38
2017-08-16T06:15:06.392Z,24.48
2017-08-16T06:15:46.844Z,24.46
2017-08-16T06:16:27.299Z,24.5
2017-08-16T06:17:07.755Z,24.48
2017-08-16T06:17:48.212Z,24.48
2017-08-16T06:18:28.670Z,24.5
2017-08-16T06:19:09.132Z,24.47
2017-08-16T06:19:49.588Z,24.55
2017-08-16T06:20:30.043Z,24.59
2017-08-16T06:21:10.563Z,24.46
2017-08-16T06:21:51.011Z,24.51
2017-08-16T06:22:31.470Z,24.55
2017-08-16T06:23:11.937Z,24.59
2017-08-16T06:23:52.384Z,24.55
2017-08-16T06:24:32.837Z,24.59
2017-08-16T06:25:13.295Z,24.61
2017-08-16T06:25:53.748Z,24.59
2017-08-16T06:26:34.200Z,24.58
2017-08-16T06:27:14.656Z,24.61
2017-08-16T06:27:55.104Z,24.63
2017-08-16T06:28:35.556Z,24.63
2017-08-16T06:29:16.003Z,24.65
2017-08-16T06:29:56.452Z,24.63
2017-08-16T06:30:36.904Z,24.62
2017-08-16T06:31:17.360Z,24.65
2017-08-16T06:31:57.814Z,24.69
2017-08-16T06:32:38.271Z,24.69
2017-08-16T06:33:18.728Z,24.65
2017-08-16T06:33:59.179Z,24.65
2017-08-16T06:34:39.627Z,24.66
2017-08-16T06:35:20.087Z,24.71
2017-08-16T06:36:00.560Z,24.66
2017-08-16T06:36:41.005Z,24.68
2017-08-16T06:37:21.459Z,24.74
2017-08-16T06:38:01.906Z,24.74
2017-08-16T06:38:42.350Z,24.82
2017-08-16T06:39:22.806Z,24.79
2017-08-16T06:40:03.261Z,24.78
2017-08-16T06:40:43.721Z,24.79
2017-08-16T06:41:24.163Z,24.85
2017-08-16T06:42:04.615Z,24.79
2017-08-16T06:42:45.073Z,24.85
2017-08-16T06:43:25.519Z,24.82
2017-08-16T06:44:05.981Z,24.88
2017-08-16T06:44:46.438Z,24.93
2017-08-16T06:45:26.908Z,24.89
2017-08-16T06:46:07.367Z,24.93
2017-08-16T06:46:47.814Z,24.94
2017-08-16T06:47:28.280Z,24.86
2017-08-16T06:48:08.748Z,24.81
2017-08-16T06:48:49.202Z,24.93
2017-08-16T06:49:29.650Z,24.96
2017-08-16T06:50:10.101Z,24.99
2017-08-16T06:50:50.547Z,24.89
2017-08-16T06:51:30.997Z,24.85
2017-08-16T06:52:11.444Z,24.89
2017-08-16T06:52:51.914Z,24.94
2017-08-16T06:53:32.340Z,24.96
2017-08-16T06:54:12.792Z,24.85
2017-08-16T06:54:53.236Z,24.96
2017-08-16T06:55:33.680Z,24.89
2017-08-16T06:56:14.135Z,24.96
2017-08-16T06:56:54.581Z,24.99
2017-08-16T06:57:35.027Z,24.97
2017-08-16T06:58:15.513Z,24.93
2017-08-16T06:58:55.926Z,24.94
2017-08-16T06:59:36.381Z,24.97
2017-08-16T07:00:16.841Z,24.96
2017-08-16T07:00:57.287Z,24.96
2017-08-16T07:01:37.740Z,25.04
2017-08-16T07:02:18.200Z,25.01
2017-08-16T07:02:58.652Z,24.97
2017-08-16T07:03:39.112Z,24.96
2017-08-16T07:04:19.552Z,25.06
2017-08-16T07:04:59.992Z,24.97
2017-08-16T07:05:40.436Z,25.09
2017-08-16T07:06:20.857Z,25.09
2017-08-16T07:07:58.237Z,25.07
2017-08-16T07:08:38.685Z,25.01
2017-08-16T07:09:19.144Z,25.04
2017-08-16T07:09:59.547Z,25.12
2017-08-16T07:10:39.993Z,25.07
2017-08-16T07:11:20.410Z,25.14
2017-08-16T07:13:08.371Z,25.14
2017-08-16T07:13:48.844Z,25.12
2017-08-16T07:14:29.292Z,25.15
2017-08-16T07:15:09.746Z,25.14
2017-08-16T07:15:50.194Z,25.12
2017-08-16T07:16:30.638Z,25.18
2017-08-16T07:17:11.091Z,25.09
2017-08-16T07:17:51.539Z,25.15
2017-08-16T07:18:31.987Z,25.18
2017-08-16T07:19:12.435Z,25.16
2017-08-16T07:19:52.886Z,25.18
2017-08-16T07:20:33.334Z,25.21
2017-08-16T07:21:13.783Z,25.25
2017-08-16T07:21:54.232Z,25.15
2017-08-16T07:22:34.700Z,25.19
2017-08-16T07:23:15.149Z,25.22
2017-08-16T07:23:55.589Z,25.16
2017-08-16T07:24:36.073Z,25.26
2017-08-16T07:25:16.529Z,25.18
2017-08-16T07:25:56.981Z,25.14
2017-08-16T07:26:37.433Z,25.25
2017-08-16T07:27:17.895Z,25.21
2017-08-16T07:27:58.355Z,25.22
2017-08-16T07:28:38.804Z,25.3
2017-08-16T07:29:19.264Z,25.25
2017-08-16T07:29:59.710Z,25.26
2017-08-16T07:30:40.161Z,25.33
2017-08-16T07:31:20.604Z,25.3
2017-08-16T07:32:01.061Z,25.33
2017-08-16T07:32:41.519Z,25.31
2017-08-16T07:33:21.974Z,25.25
2017-08-16T07:34:02.423Z,25.25
2017-08-16T07:34:42.893Z,25.25
2017-08-16T07:36:30.350Z,25.26
2017-08-16T07:37:10.781Z,25.3
2017-08-16T07:37:51.236Z,25.26
2017-08-16T07:38:31.704Z,25.22
2017-08-16T07:39:12.152Z,25.24
2017-08-16T07:39:52.586Z,25.25
2017-08-16T07:40:33.034Z,25.3
2017-08-16T07:41:13.550Z,25.24
2017-08-16T07:41:53.991Z,25.24
2017-08-16T07:42:34.448Z,25.3
2017-08-16T07:43:14.911Z,25.21
2017-08-16T07:43:55.359Z,25.22
2017-08-16T07:44:35.845Z,25.24
2017-08-16T07:45:16.288Z,25.21
2017-08-16T07:45:56.746Z,25.22
2017-08-16T07:46:37.213Z,25.18
2017-08-16T07:47:17.660Z,25.21
2017-08-16T07:47:58.121Z,25.19
2017-08-16T07:48:38.571Z,25.26
2017-08-16T07:49:19.027Z,25.24
2017-08-16T07:49:59.486Z,25.16
2017-08-16T07:50:39.915Z,25.21
2017-08-16T07:51:20.375Z,25.22
2017-08-16T07:52:00.842Z,25.22
2017-08-16T07:52:41.299Z,25.15
2017-08-16T07:53:21.765Z,25.21
2017-08-16T07:54:02.213Z,25.15
2017-08-16T07:55:49.738Z,25.12
2017-08-16T07:56:30.194Z,25.11
2017-08-16T07:57:10.700Z,25.18
2017-08-16T07:57:51.169Z,25.14
2017-08-16T07:58:31.636Z,25.15
2017-08-16T07:59:12.086Z,25.11
2017-08-16T08:01:04.728Z,25.11
2017-08-16T08:01:45.211Z,25.09
2017-08-16T08:02:25.648Z,25.15
2017-08-16T08:03:06.091Z,25.15
2017-08-16T08:03:46.557Z,25.09
2017-08-16T08:04:27.001Z,25.11
2017-08-16T08:05:07.450Z,25.11
2017-08-16T08:05:47.884Z,25.15
2017-08-16T08:06:28.341Z,25.14
2017-08-16T08:07:08.796Z,25.06
2017-08-16T08:07:49.248Z,25.16
2017-08-16T08:08:29.702Z,25.11
2017-08-16T08:09:10.154Z,25.14
2017-08-16T08:09:50.616Z,25.12
2017-08-16T08:12:03.509Z,25.24
2017-08-16T08:12:43.963Z,25.15
2017-08-16T08:13:24.423Z,25.19
2017-08-16T08:14:04.872Z,25.18
2017-08-16T08:14:45.389Z,25.16
2017-08-16T08:15:25.774Z,25.19
2017-08-16T08:16:06.210Z,25.21
2017-08-16T08:16:46.670Z,25.21
2017-08-16T08:17:27.125Z,25.24
2017-08-16T08:18:07.588Z,25.22
2017-08-16T08:18:48.037Z,25.24
2017-08-16T08:19:28.485Z,25.3
2017-08-16T08:20:08.934Z,25.33
2017-08-16T08:20:49.377Z,25.4
2017-08-16T08:21:29.833Z,25.36
2017-08-16T08:22:10.289Z,25.41
2017-08-16T08:22:50.729Z,25.44
2017-08-16T08:23:31.174Z,25.54
2017-08-16T08:24:11.655Z,25.43
2017-08-16T08:24:52.099Z,25.51
2017-08-16T08:25:32.554Z,25.62
2017-08-16T08:26:13.014Z,25.59
2017-08-16T08:26:53.695Z,25.73
2017-08-16T08:27:34.064Z,25.62
2017-08-16T08:28:14.763Z,25.73
2017-08-16T08:28:55.347Z,25.71
2017-08-16T08:29:35.823Z,25.73
2017-08-16T08:30:16.371Z,25.7
2017-08-16T08:30:56.823Z,25.7
2017-08-16T08:31:37.282Z,25.71
2017-08-16T08:32:17.778Z,25.7
2017-08-16T08:32:58.178Z,25.68
2017-08-16T08:33:38.849Z,25.7
2017-08-16T08:34:19.134Z,25.73
2017-08-16T08:36:17.602Z,25.78
2017-08-16T08:36:58.180Z,25.8
2017-08-16T08:38:35.605Z,25.88
2017-08-16T08:39:16.043Z,25.86
2017-08-16T08:39:56.500Z,25.91
2017-08-16T08:40:36.952Z,25.91
2017-08-16T08:41:17.419Z,25.96
2017-08-16T08:41:57.870Z,25.96
2017-08-16T08:42:38.318Z,25.92
2017-08-16T08:43:18.777Z,25.99
2017-08-16T08:43:59.323Z,25.98
2017-08-16T08:44:39.717Z,26.01
2017-08-16T08:45:20.167Z,25.99
2017-08-16T08:46:00.644Z,26.04
2017-08-16T08:46:41.087Z,25.98
2017-08-16T08:47:21.544Z,25.89
2017-08-16T08:48:02.004Z,26.01
2017-08-16T08:48:42.442Z,26.06
2017-08-16T08:49:22.907Z,26.07
2017-08-16T08:50:03.355Z,26.03
2017-08-16T08:50:43.800Z,26.1
2017-08-16T08:51:25.066Z,26.01
2017-08-16T08:52:05.499Z,26.04
2017-08-16T08:52:45.937Z,26.04
2017-08-16T08:53:26.495Z,25.99
2017-08-16T08:54:06.946Z,26.01
2017-08-16T08:54:47.408Z,26.1